NY Terminal Aviation Weather Discussion (AFD)
HIGH PRES OVER THE REGION WILL DRIFT OFFSHORE ON THU.

VFR THROUGH THE TAF PERIOD. THERE IS A CHANCE OF SHOWERS ACROSS THE 
LOWER HUDSON VALLEY FROM AROUND 14Z TO 19Z...WITH KSWF POSSIBLY
IMPACTED. A RUMBLE OF THUNDER IN ALSO POSSIBLE. A FEW SPRINKLES
ARE POSSIBLE FROM LATE MORNING INTO THE EARLY AFTERNOON ACROSS
NORTHEASTERN NEW JERSEY INTO THE NYC TERMINALS...HOWEVER NO IMPACT
TO CEILINGS OR VISIBILITIES IS EXPECTED.

LIGHT AND VARIABLE TO LIGHT SW WIND TONIGHT INCREASES THRU THE
DAY. A SEA BREEZE IS EXPECTED TO DEVELOP 16Z TO 19Z.

*************************************************************************************
KJFK Terminal Weather:

FTNA35 KJFK 310525 RRB
KJFK 310520Z 3106/0112 22007KT P6SM SCT250
     FM311600 19012KT P6SM SCT050 SCT250
     FM311900 18014G20KT P6SM SCT050 BKN250
     FM010100 20009KT P6SM BKN250
KJFK Forecaster Comments Not Available at This Time
*************************************************************************************
KLGA Terminal Weather:
FTUS80 KLGA 310521 RRK
KLGA 310520Z 3106/0106 22006KT P6SM SCT250
     FM311800 20011G19KT P6SM SCT050 BKN250
     FM010100 20009KT P6SM BKN250
KLGA Forecaster Comments Not Available at This Time
*************************************************************************************
KEWR Terminal Weather:
FTUS80 KEWR 310521 RRF
KEWR 310520Z 3106/0112 22005KT P6SM SCT250
     FM311300 22010KT P6SM SCT050 SCT250
     FM311900 20012G19KT P6SM SCT050 BKN250
     FM010000 20007KT P6SM BKN250
KEWR Forecaster Comments Not Available at This Time
*************************************************************************************
KTEB Terminal Weather:
FTUS80 KTEB 310521 RRS
KTEB 310520Z 3106/0106 VRB03KT P6SM SCT250
     FM311300 22007KT P6SM SCT050 SCT250
     FM311900 21010G18KT P6SM SCT050 BKN250
     FM010000 20007KT P6SM BKN250
KTEB Forecaster Comments Not Available at This Time
*************************************************************************************
KHPN Terminal Weather:
FTUS80 KHPN 310521 RRH
KHPN 310520Z 3106/0106 VRB02KT P6SM SCT250
     FM311300 21007KT P6SM SCT050 SCT250
     FM311800 18008KT P6SM SCT050 BKN250
     FM010000 VRB05KT P6SM BKN250 AMD NOT SKED
KHPN Forecaster Comments Not Available at This Time
*************************************************************************************
KISP Terminal Weather:
FTUS80 KISP 310521 RRJ
KISP 310520Z 3106/0106 VRB02KT P6SM SKC
     FM311300 21008KT P6SM FEW250
     FM311700 19011KT P6SM FEW050 SCT250
     FM010000 20006KT P6SM BKN250
KISP Forecaster Comments Not Available at This Time

*************************************************************************************
5 Day General Outlook:

.OUTLOOK FOR 06Z FRIDAY THROUGH MONDAY...
.THURSDAY NIGHT-MONDAY...VFR...EXCEPT MVFR OR LOWER 
POSSIBLE IN ANY ISOLD-SCT SHRA/TSTMS THAT ARE POSSIBLE MAINLY IN THE 
AFTERNOON/EVENING EACH DAY.


Click the Print Icon print icon below to print the briefing sheet